createdAt,value
2023-10-20T00:01:55.569Z,96.44
2023-10-20T00:04:22.253Z,95.49
2023-10-20T00:06:48.853Z,97.24
2023-10-20T00:09:19.315Z,96.73
2023-10-20T00:11:46.420Z,96.25
2023-10-20T00:14:12.981Z,97.31
2023-10-20T00:16:39.559Z,95.84
2023-10-20T00:19:06.224Z,95.89
2023-10-20T00:21:32.830Z,95.68
2023-10-20T00:23:59.454Z,96.45
2023-10-20T00:26:26.222Z,96.77
2023-10-20T00:28:52.845Z,96.57
2023-10-20T00:31:19.537Z,97.07
2023-10-20T00:33:51.372Z,96.63
2023-10-20T00:36:18.784Z,96.80
2023-10-20T00:38:45.560Z,96.59
2023-10-20T00:41:12.384Z,95.88
2023-10-20T00:43:39.694Z,95.66
2023-10-20T00:46:08.223Z,96.10
2023-10-20T00:48:38.362Z,96.41
2023-10-20T00:51:06.988Z,97.11
2023-10-20T00:53:38.021Z,96.07
2023-10-20T00:56:06.262Z,96.19
2023-10-20T00:58:33.482Z,96.32
2023-10-20T01:01:00.711Z,96.21
2023-10-20T01:03:28.907Z,95.83
2023-10-20T01:05:56.845Z,95.80
2023-10-20T01:08:23.533Z,95.56
2023-10-20T01:10:50.199Z,96.26
2023-10-20T01:13:16.939Z,95.83
2023-10-20T01:15:43.663Z,95.91
2023-10-20T01:18:11.647Z,96.15
2023-10-20T01:20:40.298Z,95.51
2023-10-20T01:23:07.123Z,95.07
2023-10-20T01:25:34.104Z,95.84
2023-10-20T01:28:00.948Z,95.35
2023-10-20T01:30:27.788Z,95.09
2023-10-20T01:32:54.546Z,95.62
2023-10-20T01:35:21.361Z,96.46
2023-10-20T01:37:48.659Z,95.85
2023-10-20T01:40:15.661Z,95.87
2023-10-20T01:42:42.189Z,95.47
2023-10-20T01:45:11.001Z,96.01
2023-10-20T01:47:38.241Z,95.74
2023-10-20T01:50:05.592Z,96.16
2023-10-20T01:52:32.174Z,95.55
2023-10-20T01:55:00.409Z,95.81
2023-10-20T01:57:27.242Z,95.71
2023-10-20T01:59:53.864Z,95.69
2023-10-20T02:02:20.473Z,96.27
2023-10-20T02:04:47.574Z,96.65
2023-10-20T02:07:14.273Z,96.16
2023-10-20T02:09:40.832Z,96.06
2023-10-20T02:12:08.704Z,95.97
2023-10-20T02:14:35.671Z,96.09
2023-10-20T02:17:02.921Z,95.52
2023-10-20T02:19:29.582Z,96.31
2023-10-20T02:21:56.371Z,95.49
2023-10-20T02:24:23.263Z,96.02
2023-10-20T02:26:49.884Z,96.14
2023-10-20T02:29:16.563Z,96.42
2023-10-20T02:31:43.134Z,95.55
2023-10-20T02:34:09.729Z,95.56
2023-10-20T02:36:36.356Z,95.73
2023-10-20T02:39:03.100Z,95.68
2023-10-20T02:41:30.199Z,96.32
2023-10-20T02:43:56.944Z,96.40
2023-10-20T02:46:24.035Z,95.71
2023-10-20T02:48:50.833Z,95.32
2023-10-20T02:51:18.870Z,96.13
2023-10-20T02:53:45.953Z,96.06
2023-10-20T02:56:17.456Z,95.87
2023-10-20T02:58:45.123Z,95.39
2023-10-20T03:01:16.036Z,95.88
2023-10-20T03:03:43.272Z,95.73
2023-10-20T03:06:10.012Z,95.33
2023-10-20T03:08:39.234Z,95.77
2023-10-20T03:11:08.892Z,95.95
2023-10-20T03:13:39.099Z,95.25
2023-10-20T03:16:07.020Z,95.31
2023-10-20T03:18:33.918Z,95.07
2023-10-20T03:21:02.507Z,95.48
2023-10-20T03:23:29.580Z,95.36
2023-10-20T03:25:56.221Z,95.46
2023-10-20T03:28:22.877Z,95.39
2023-10-20T03:30:52.036Z,95.73
2023-10-20T03:33:19.401Z,95.64
2023-10-20T03:35:47.268Z,95.06
2023-10-20T03:38:15.828Z,95.08
2023-10-20T03:40:43.165Z,94.85
2023-10-20T03:43:11.394Z,95.29
2023-10-20T03:45:50.879Z,95.21
2023-10-20T03:48:18.054Z,95.06
2023-10-20T03:50:45.473Z,95.21
2023-10-20T03:53:17.400Z,94.88
2023-10-20T03:55:44.495Z,95.18
2023-10-20T03:58:12.430Z,94.90
2023-10-20T04:00:43.198Z,94.64
2023-10-20T04:03:10.240Z,94.92
2023-10-20T04:05:37.062Z,95.11
2023-10-20T04:08:07.400Z,95.31
2023-10-20T04:10:34.325Z,94.88
2023-10-20T04:13:03.180Z,95.43
2023-10-20T04:15:33.808Z,95.39
2023-10-20T04:18:00.484Z,95.02
2023-10-20T04:20:27.337Z,95.04
2023-10-20T04:22:54.156Z,95.61
2023-10-20T04:25:25.141Z,95.14
2023-10-20T04:27:59.272Z,95.10
2023-10-20T04:30:44.924Z,95.55
2023-10-20T04:33:30.181Z,95.83
2023-10-20T04:36:15.438Z,95.73
2023-10-20T04:39:00.294Z,95.41
2023-10-20T04:41:45.377Z,95.32
2023-10-20T04:44:17.732Z,95.29
2023-10-20T04:47:03.774Z,95.70
2023-10-20T04:49:48.940Z,95.02
2023-10-20T04:52:38.612Z,95.29
2023-10-20T04:55:11.603Z,96.20
2023-10-20T04:57:51.818Z,95.90
2023-10-20T05:00:21.836Z,95.61
2023-10-20T05:02:55.283Z,95.08
2023-10-20T05:05:26.586Z,95.21
2023-10-20T05:07:54.965Z,95.76
2023-10-20T05:10:23.227Z,95.88
2023-10-20T05:12:49.865Z,95.73
2023-10-20T05:15:16.819Z,95.72
2023-10-20T05:17:43.446Z,96.33
2023-10-20T05:20:14.267Z,95.66
2023-10-20T05:22:43.755Z,95.45
2023-10-20T05:25:12.948Z,95.92
2023-10-20T05:27:40.162Z,96.77
2023-10-20T05:30:10.252Z,96.24
2023-10-20T05:32:38.746Z,95.88
2023-10-20T05:35:08.628Z,96.82
2023-10-20T05:37:35.568Z,96.24
2023-10-20T05:40:04.567Z,96.29
2023-10-20T05:42:31.292Z,96.17
2023-10-20T05:45:10.957Z,96.09
2023-10-20T05:47:39.488Z,96.04
2023-10-20T05:50:07.697Z,95.80
2023-10-20T05:52:37.120Z,96.42
2023-10-20T05:55:04.833Z,95.82
2023-10-20T05:57:31.656Z,95.92
2023-10-20T06:00:01.411Z,96.05
2023-10-20T06:02:29.213Z,95.47
2023-10-20T06:04:56.112Z,95.46
2023-10-20T06:07:22.917Z,95.96
2023-10-20T06:09:50.690Z,95.64
2023-10-20T06:12:18.060Z,96.03
2023-10-20T06:14:45.049Z,95.51
2023-10-20T06:17:12.223Z,95.35
2023-10-20T06:19:38.950Z,95.83
2023-10-20T06:22:06.820Z,95.62
2023-10-20T06:24:34.666Z,96.22
2023-10-20T06:27:03.998Z,95.47
2023-10-20T06:29:47.505Z,95.68
2023-10-20T06:32:27.386Z,96.10
2023-10-20T06:35:00.675Z,96.22
2023-10-20T06:37:43.282Z,96.06
2023-10-20T06:40:16.874Z,96.48
2023-10-20T06:42:46.741Z,96.78
2023-10-20T06:45:13.283Z,97.69
2023-10-20T06:47:42.282Z,97.83
2023-10-20T06:50:11.936Z,98.35
2023-10-20T06:52:38.770Z,97.98
2023-10-20T06:55:30.520Z,99.84
2023-10-20T06:57:53.040Z,99.68
2023-10-20T07:00:22.044Z,99.35
2023-10-20T07:02:49.861Z,99.03
2023-10-20T07:05:18.793Z,99.13
2023-10-20T07:07:45.475Z,100.00
2023-10-20T07:10:12.064Z,98.06
2023-10-20T07:12:39.284Z,98.26
2023-10-20T07:15:06.934Z,99.83
2023-10-20T07:17:34.179Z,98.75
2023-10-20T07:20:00.959Z,96.28
2023-10-20T07:22:31.120Z,96.56
2023-10-20T07:24:59.065Z,98.44
2023-10-20T07:27:26.616Z,97.24
2023-10-20T07:29:53.510Z,97.56
2023-10-20T07:32:20.719Z,98.08
2023-10-20T07:34:48.213Z,98.84
2023-10-20T07:37:17.010Z,98.06
2023-10-20T07:39:44.881Z,98.23
2023-10-20T07:42:11.724Z,98.31
2023-10-20T07:44:38.605Z,97.93
2023-10-20T07:47:05.356Z,98.99
2023-10-20T07:49:32.156Z,96.90
2023-10-20T07:51:59.969Z,96.51
2023-10-20T07:54:27.249Z,96.92
2023-10-20T07:56:53.981Z,96.67
2023-10-20T07:59:20.659Z,97.31
2023-10-20T08:01:47.378Z,95.84
2023-10-20T08:04:14.281Z,96.62
2023-10-20T08:06:41.834Z,97.15
2023-10-20T08:09:10.736Z,97.76
2023-10-20T08:11:37.688Z,97.26
2023-10-20T08:14:06.448Z,96.79
2023-10-20T08:16:33.527Z,95.34
2023-10-20T08:19:02.039Z,96.20
2023-10-20T08:21:31.156Z,97.22
2023-10-20T08:23:59.473Z,96.94
2023-10-20T08:26:26.214Z,95.39
2023-10-20T08:28:53.128Z,97.21
2023-10-20T08:31:21.111Z,95.73
2023-10-20T08:33:49.852Z,97.35
2023-10-20T08:36:17.402Z,95.71
2023-10-20T08:38:48.912Z,97.16
2023-10-20T08:41:22.977Z,95.25
2023-10-20T08:43:52.086Z,96.35
2023-10-20T08:46:19.604Z,96.81
2023-10-20T08:48:48.219Z,94.77
2023-10-20T08:51:18.236Z,96.89
2023-10-20T08:53:48.534Z,95.93
2023-10-20T08:56:15.766Z,96.88
2023-10-20T08:58:46.709Z,95.97
2023-10-20T09:01:14.335Z,95.04
2023-10-20T09:03:50.085Z,95.70
2023-10-20T09:06:17.143Z,96.43
2023-10-20T09:08:47.230Z,95.91
2023-10-20T09:11:14.349Z,94.99
2023-10-20T09:13:44.198Z,95.28
2023-10-20T09:16:13.012Z,95.58
2023-10-20T09:18:49.238Z,95.21
2023-10-20T09:21:18.287Z,96.29
2023-10-20T09:24:02.781Z,95.53
2023-10-20T09:26:33.103Z,95.25
2023-10-20T09:29:02.353Z,95.34
2023-10-20T09:31:29.667Z,94.77
2023-10-20T09:33:56.512Z,95.42
2023-10-20T09:36:27.399Z,94.69
2023-10-20T09:38:55.894Z,95.43
2023-10-20T09:41:31.242Z,94.25
2023-10-20T09:44:10.248Z,95.84
2023-10-20T09:46:43.340Z,96.52
2023-10-20T09:49:18.294Z,96.62
2023-10-20T09:51:49.071Z,96.52
2023-10-20T09:54:18.791Z,96.74
2023-10-20T09:56:47.159Z,96.15
2023-10-20T09:59:30.087Z,96.05
2023-10-20T10:01:58.076Z,96.37
2023-10-20T10:04:29.729Z,96.16
2023-10-20T10:07:01.022Z,96.26
2023-10-20T10:09:44.634Z,96.55
2023-10-20T10:12:15.748Z,95.45
2023-10-20T10:14:42.718Z,96.59
2023-10-20T10:17:11.310Z,95.85
2023-10-20T10:19:50.271Z,96.41
2023-10-20T10:22:17.421Z,96.54
2023-10-20T10:24:57.895Z,96.30
2023-10-20T10:27:29.368Z,96.74
2023-10-20T10:30:07.569Z,96.27
2023-10-20T10:32:42.907Z,96.30
2023-10-20T10:35:11.005Z,96.46
2023-10-20T10:37:39.126Z,96.08
2023-10-20T10:40:15.640Z,96.28
2023-10-20T10:42:47.579Z,96.19
2023-10-20T10:45:19.235Z,95.46
2023-10-20T10:47:47.251Z,96.04
2023-10-20T10:50:16.644Z,94.68
2023-10-20T10:52:45.779Z,96.16
2023-10-20T10:55:12.498Z,95.20
2023-10-20T10:57:40.585Z,95.58
2023-10-20T11:00:08.383Z,95.60
2023-10-20T11:02:35.589Z,95.94
2023-10-20T11:05:03.909Z,94.90
2023-10-20T11:07:30.499Z,94.88
2023-10-20T11:09:57.166Z,95.73
2023-10-20T11:12:24.051Z,96.21
2023-10-20T11:14:51.599Z,95.43
2023-10-20T11:17:18.521Z,95.28
2023-10-20T11:19:46.054Z,95.13
2023-10-20T11:22:17.063Z,95.56
2023-10-20T11:24:44.054Z,95.37
2023-10-20T11:27:14.111Z,94.94
2023-10-20T11:29:57.609Z,94.51
2023-10-20T11:32:27.293Z,95.17
2023-10-20T11:34:54.438Z,95.34
2023-10-20T11:37:21.009Z,94.66
2023-10-20T11:39:48.378Z,95.82
2023-10-20T11:42:15.558Z,94.85
2023-10-20T11:44:42.510Z,95.18
2023-10-20T11:47:09.121Z,94.19
2023-10-20T11:49:35.929Z,95.13
2023-10-20T11:52:09.872Z,95.28
2023-10-20T11:54:37.548Z,95.27
2023-10-20T11:57:04.285Z,95.61
2023-10-20T11:59:30.913Z,94.81
2023-10-20T12:13:10.408Z,93.62
2023-10-20T12:15:38.831Z,94.80
2023-10-20T12:18:08.176Z,94.93
2023-10-20T12:20:35.704Z,94.76
2023-10-20T12:23:16.622Z,94.45
2023-10-20T12:25:43.731Z,93.75
2023-10-20T12:28:11.768Z,93.48
2023-10-20T12:30:38.591Z,94.44
2023-10-20T12:33:06.943Z,95.04
2023-10-20T12:35:33.780Z,94.35
2023-10-20T12:38:00.633Z,95.10
2023-10-20T12:40:27.494Z,94.27
2023-10-20T12:42:54.945Z,94.75
2023-10-20T12:45:21.555Z,94.44
2023-10-20T12:47:48.508Z,94.35
2023-10-20T12:50:15.796Z,94.84
2023-10-20T12:52:42.545Z,94.47
2023-10-20T12:55:11.152Z,94.40
2023-10-20T12:57:55.771Z,94.70
2023-10-20T13:00:22.393Z,93.32
2023-10-20T13:02:53.884Z,93.45
2023-10-20T13:05:22.662Z,94.62
2023-10-20T13:07:51.497Z,94.49
2023-10-20T13:10:18.946Z,94.35
2023-10-20T13:12:46.144Z,94.41
2023-10-20T13:15:12.944Z,93.96
2023-10-20T13:17:39.826Z,93.76
2023-10-20T13:20:09.995Z,94.13
2023-10-20T13:22:36.623Z,92.40
2023-10-20T13:25:03.714Z,93.60
2023-10-20T13:27:31.199Z,93.40
2023-10-20T13:29:58.202Z,94.53
2023-10-20T13:32:25.021Z,93.91
2023-10-20T13:34:51.954Z,94.28
2023-10-20T13:37:21.180Z,94.44
2023-10-20T13:39:48.390Z,93.08
2023-10-20T13:42:15.656Z,94.53
2023-10-20T13:44:42.442Z,93.14
2023-10-20T13:47:09.202Z,93.56
2023-10-20T13:49:36.206Z,93.97
2023-10-20T13:52:03.358Z,93.83
2023-10-20T13:54:30.380Z,93.98
2023-10-20T13:56:57.275Z,94.58
2023-10-20T13:59:24.138Z,94.01
2023-10-20T14:01:50.734Z,94.27
2023-10-20T14:04:19.554Z,94.20
2023-10-20T14:06:47.049Z,94.57
2023-10-20T14:09:15.385Z,94.93
2023-10-20T14:11:42.310Z,95.14
2023-10-20T14:14:09.140Z,95.03
2023-10-20T14:16:36.089Z,94.82
2023-10-20T14:19:02.999Z,94.31
2023-10-20T14:21:29.867Z,94.87
2023-10-20T14:24:06.452Z,95.36
2023-10-20T14:26:33.372Z,95.55
2023-10-20T14:29:00.143Z,95.14
2023-10-20T14:31:30.847Z,94.96
2023-10-20T14:33:59.777Z,94.90
2023-10-20T14:36:26.693Z,94.98
2023-10-20T14:38:53.468Z,95.46
2023-10-20T14:41:20.101Z,95.55
2023-10-20T14:43:46.788Z,95.04
2023-10-20T14:46:14.530Z,94.64
2023-10-20T14:48:41.844Z,95.28
2023-10-20T14:51:09.551Z,95.27
2023-10-20T14:53:36.725Z,95.71
2023-10-20T14:56:04.968Z,95.62
2023-10-20T14:58:33.616Z,95.11
2023-10-20T15:01:00.631Z,95.38
2023-10-20T15:03:28.334Z,95.01
2023-10-20T15:05:55.201Z,95.30
2023-10-20T15:08:22.112Z,95.12
2023-10-20T15:10:49.336Z,95.04
2023-10-20T15:13:16.495Z,95.18
2023-10-20T15:15:43.320Z,94.96
2023-10-20T15:18:10.706Z,95.18
2023-10-20T15:20:41.348Z,95.55
2023-10-20T15:23:17.184Z,95.83
2023-10-20T15:25:44.673Z,95.27
2023-10-20T15:28:11.383Z,94.48
2023-10-20T15:30:39.004Z,94.86
2023-10-20T15:33:06.127Z,95.15
2023-10-20T15:35:35.384Z,95.62
2023-10-20T15:38:03.550Z,95.63
2023-10-20T15:40:30.335Z,94.98
2023-10-20T15:42:56.925Z,95.43
2023-10-20T15:45:23.787Z,95.42
2023-10-20T15:47:52.280Z,95.10
2023-10-20T15:50:19.111Z,95.59
2023-10-20T15:52:45.689Z,95.43
2023-10-20T15:55:13.791Z,95.86
2023-10-20T15:57:40.388Z,95.62
2023-10-20T16:00:07.586Z,95.64
2023-10-20T16:02:34.460Z,95.36
2023-10-20T16:05:03.262Z,95.95
2023-10-20T16:07:30.353Z,95.27
2023-10-20T16:09:58.284Z,95.95
2023-10-20T16:12:24.991Z,95.90
2023-10-20T16:14:52.809Z,96.11
2023-10-20T16:17:20.398Z,95.75
2023-10-20T16:19:46.989Z,96.16
2023-10-20T16:22:14.114Z,96.13
2023-10-20T16:24:42.436Z,96.09
2023-10-20T16:27:11.436Z,96.20
2023-10-20T16:29:38.201Z,96.40
2023-10-20T16:32:05.196Z,96.15
2023-10-20T16:34:31.976Z,95.87
2023-10-20T16:36:58.594Z,96.18
2023-10-20T16:39:25.256Z,96.13
2023-10-20T16:41:52.124Z,96.71
2023-10-20T16:44:18.653Z,96.18
2023-10-20T16:46:45.365Z,96.28
2023-10-20T16:49:14.600Z,96.83
2023-10-20T16:51:44.806Z,96.91
2023-10-20T16:54:12.505Z,96.19
2023-10-20T16:56:39.593Z,96.92
2023-10-20T16:59:06.664Z,97.24
2023-10-20T17:01:33.443Z,96.96
2023-10-20T17:04:00.795Z,96.98
2023-10-20T17:06:27.984Z,97.21
2023-10-20T17:08:57.572Z,96.98
2023-10-20T17:11:24.326Z,96.84
2023-10-20T17:13:53.124Z,97.37
2023-10-20T17:16:19.832Z,97.19
2023-10-20T17:18:47.953Z,97.28
2023-10-20T17:21:14.940Z,97.32
2023-10-20T17:23:43.877Z,97.71
2023-10-20T17:26:10.795Z,97.98
2023-10-20T17:28:37.992Z,97.78
2023-10-20T17:31:06.086Z,97.70
2023-10-20T17:33:33.291Z,98.26
2023-10-20T17:36:07.637Z,98.50
2023-10-20T17:38:35.095Z,98.11
2023-10-20T17:41:04.304Z,99.25
2023-10-20T17:43:32.112Z,99.16
2023-10-20T17:46:04.015Z,99.41
2023-10-20T17:48:30.912Z,98.83
2023-10-20T17:51:01.599Z,99.24
2023-10-20T17:53:29.045Z,99.64
2023-10-20T17:55:55.792Z,99.41
2023-10-20T17:58:22.460Z,99.36
2023-10-20T18:00:50.321Z,99.54
2023-10-20T18:03:18.296Z,99.32
2023-10-20T18:05:45.151Z,100.00
2023-10-20T18:08:12.837Z,99.51
2023-10-20T18:10:43.008Z,99.69
2023-10-20T18:13:10.304Z,100.00
2023-10-20T18:15:37.820Z,99.69
2023-10-20T18:18:05.288Z,100.00
2023-10-20T18:20:32.214Z,99.79
2023-10-20T18:23:00.001Z,99.79
2023-10-20T18:25:28.797Z,99.84
2023-10-20T18:27:55.573Z,100.00
2023-10-20T18:30:22.293Z,100.00
2023-10-20T18:32:49.171Z,100.00
2023-10-20T18:35:16.950Z,100.00
2023-10-20T18:37:43.558Z,100.00
2023-10-20T18:40:10.781Z,100.00
2023-10-20T18:42:37.447Z,100.00
2023-10-20T18:45:04.823Z,100.00
2023-10-20T18:47:32.652Z,100.00
2023-10-20T18:49:59.447Z,100.00
2023-10-20T18:52:26.037Z,100.00
2023-10-20T18:54:53.119Z,100.00
2023-10-20T18:57:19.767Z,100.00
2023-10-20T18:59:46.689Z,100.00
2023-10-20T19:02:14.533Z,100.00
2023-10-20T19:04:41.413Z,100.00
2023-10-20T19:07:08.352Z,100.00
2023-10-20T19:09:35.263Z,100.00
2023-10-20T19:12:02.295Z,100.00
2023-10-20T19:14:29.050Z,100.00
2023-10-20T19:16:56.099Z,100.00
2023-10-20T19:19:22.930Z,100.00
2023-10-20T19:21:50.818Z,100.00
2023-10-20T19:24:19.206Z,100.00
2023-10-20T19:26:45.913Z,100.00
2023-10-20T19:29:13.261Z,100.00
2023-10-20T19:31:40.440Z,100.00
2023-10-20T19:34:08.380Z,100.00
2023-10-20T19:36:35.048Z,100.00
2023-10-20T19:39:01.894Z,100.00
2023-10-20T19:41:28.598Z,100.00
2023-10-20T19:43:55.445Z,100.00
2023-10-20T19:46:22.837Z,100.00
2023-10-20T19:48:49.605Z,100.00
2023-10-20T19:51:16.359Z,100.00
2023-10-20T19:53:43.194Z,100.00
2023-10-20T19:56:09.952Z,100.00
2023-10-20T19:58:36.613Z,100.00
2023-10-20T20:01:04.441Z,100.00
2023-10-20T20:03:31.570Z,100.00
2023-10-20T20:05:58.638Z,100.00
2023-10-20T20:08:25.681Z,100.00
2023-10-20T20:10:52.314Z,100.00
2023-10-20T20:13:18.868Z,100.00
2023-10-20T20:15:45.445Z,100.00
2023-10-20T20:18:12.407Z,100.00
2023-10-20T20:20:39.239Z,100.00
2023-10-20T20:23:05.984Z,100.00
2023-10-20T20:25:32.631Z,100.00
2023-10-20T20:27:59.266Z,100.00
2023-10-20T20:30:25.836Z,100.00
2023-10-20T20:32:52.787Z,100.00
2023-10-20T20:35:21.271Z,100.00
2023-10-20T20:37:47.947Z,100.00
2023-10-20T20:40:14.720Z,100.00
2023-10-20T20:42:41.408Z,100.00
2023-10-20T20:45:09.004Z,100.00
2023-10-20T20:47:38.238Z,100.00
2023-10-20T20:50:10.370Z,100.00
2023-10-20T20:52:40.266Z,100.00
2023-10-20T20:55:07.070Z,100.00
2023-10-20T20:57:33.659Z,100.00
2023-10-20T21:00:00.783Z,100.00
2023-10-20T21:02:27.524Z,100.00
2023-10-20T21:04:55.457Z,100.00
2023-10-20T21:07:22.267Z,100.00
2023-10-20T21:09:49.149Z,100.00
2023-10-20T21:12:16.006Z,100.00
2023-10-20T21:14:42.707Z,100.00
2023-10-20T21:17:09.327Z,100.00
2023-10-20T21:19:36.050Z,100.00
2023-10-20T21:22:04.111Z,100.00
2023-10-20T21:24:30.710Z,100.00
2023-10-20T21:26:57.580Z,100.00
2023-10-20T21:29:26.387Z,100.00
2023-10-20T21:31:53.681Z,100.00
2023-10-20T21:34:20.297Z,100.00
2023-10-20T21:36:47.131Z,100.00
2023-10-20T21:39:14.221Z,100.00
2023-10-20T21:41:41.008Z,100.00
2023-10-20T21:44:08.297Z,100.00
2023-10-20T21:46:37.481Z,100.00
2023-10-20T21:49:04.138Z,100.00
2023-10-20T21:51:30.812Z,100.00
2023-10-20T21:53:57.903Z,100.00
2023-10-20T21:56:24.569Z,99.47
2023-10-20T21:58:51.325Z,99.79
2023-10-20T22:01:18.011Z,100.00
2023-10-20T22:03:46.251Z,99.86
2023-10-20T22:06:12.967Z,100.00
2023-10-20T22:08:39.894Z,99.60
2023-10-20T22:11:06.726Z,100.00
2023-10-20T22:13:33.332Z,100.00
2023-10-20T22:16:00.004Z,99.55
2023-10-20T22:18:27.264Z,100.00
2023-10-20T22:20:54.403Z,100.00
2023-10-20T22:23:23.376Z,100.00
2023-10-20T22:25:50.592Z,100.00
2023-10-20T22:28:17.219Z,100.00
2023-10-20T22:30:44.061Z,100.00
2023-10-20T22:33:11.073Z,100.00
2023-10-20T22:35:38.052Z,100.00
2023-10-20T22:38:04.720Z,100.00
2023-10-20T22:40:31.538Z,100.00
2023-10-20T22:42:58.260Z,100.00
2023-10-20T22:45:25.288Z,100.00
2023-10-20T22:47:51.945Z,100.00
2023-10-20T22:50:21.417Z,99.47
2023-10-20T22:52:48.957Z,100.00
2023-10-20T22:55:16.080Z,100.00
2023-10-20T22:57:42.759Z,99.88
2023-10-20T23:00:10.999Z,100.00
2023-10-20T23:02:39.812Z,100.00
2023-10-20T23:05:07.993Z,99.36
2023-10-20T23:07:35.057Z,100.00
2023-10-20T23:10:01.795Z,100.00
2023-10-20T23:12:28.436Z,100.00
2023-10-20T23:14:55.155Z,100.00
2023-10-20T23:17:21.862Z,100.00
2023-10-20T23:19:48.522Z,100.00
2023-10-20T23:22:16.055Z,100.00
2023-10-20T23:24:42.738Z,100.00
2023-10-20T23:27:09.574Z,100.00
2023-10-20T23:29:36.494Z,100.00
2023-10-20T23:32:08.652Z,100.00
2023-10-20T23:34:36.043Z,100.00
2023-10-20T23:37:04.700Z,100.00
2023-10-20T23:39:34.047Z,100.00
2023-10-20T23:42:02.101Z,100.00
2023-10-20T23:44:30.966Z,100.00
2023-10-20T23:46:57.833Z,100.00
2023-10-20T23:49:24.416Z,100.00
2023-10-20T23:51:51.808Z,100.00
2023-10-20T23:54:18.562Z,100.00
2023-10-20T23:56:45.209Z,100.00
2023-10-20T23:59:11.785Z,100.00
